This is the latest recevied weather packets stored in our database for station/object N0MR. If no packets are shown the sender has not sent any weather packets the latest 10 day(s).
| Time | Temp. | Humidity | Pressure | Rain* | Wind** | Luminosity | Snow |
|---|---|---|---|---|---|---|---|
| 1778206959 | 2.78° C | 54% | 1009.7 hPa | 0 mm | - | - | - |
| 1778206346 | 4.44° C | 46% | 1009.6 hPa | 0 mm | - | - | - |
| 1778205746 | 4.44° C | 46% | 1009.6 hPa | 0 mm | - | - | - |
| 1778205085 | 5.56° C | 42% | 1009.3 hPa | 0 mm | - | - | - |
| 1778204486 | 5.56° C | 42% | 1009.3 hPa | 0 mm | - | - | - |
| 1778203887 | 6.11° C | 41% | 1009.1 hPa | 0 mm | - | - | - |
| 1778203285 | 6.11° C | 41% | 1009.1 hPa | 0 mm | - | - | - |
| 1778202684 | 6.67° C | 40% | 1008.9 hPa | 0 mm | - | - | - |
| 1778202086 | 6.67° C | 40% | 1008.9 hPa | 0 mm | - | - | - |
| 1778201484 | 7.22° C | 39% | 1009 hPa | 0 mm | - | - | - |
| 1778200884 | 7.78° C | 38% | 1008.9 hPa | 0 mm | - | - | - |
| 1778200284 | 7.78° C | 38% | 1008.9 hPa | 0 mm | - | - | - |
| 1778199685 | 7.78° C | 38% | 1008.9 hPa | 0 mm | - | - | - |
| 1778199086 | 7.78° C | 38% | 1008.9 hPa | 0 mm | - | - | - |
| 1778198486 | 7.78° C | 37% | 1008.9 hPa | 0 mm | - | - | - |
| 1778197885 | 7.78° C | 37% | 1008.9 hPa | 0 mm | - | - | - |
| 1778196088 | 7.78° C | 38% | 1009 hPa | 0 mm | - | - | - |
| 1778195485 | 7.78° C | 38% | 1009 hPa | 0 mm | - | - | - |
| 1778194886 | 8.89° C | 36% | 1008.8 hPa | 0 mm | - | - | - |
| 1778194286 | 8.89° C | 36% | 1008.8 hPa | 0 mm | - | - | - |
| 1778192487 | 8.89° C | 40% | 1009 hPa | 0 mm | - | - | - |
| 1778191887 | 8.89° C | 40% | 1009 hPa | 0 mm | - | - | - |
| 1778191286 | 8.33° C | 41% | 1009.1 hPa | 0 mm | - | - | - |
| 1778190687 | 8.33° C | 41% | 1009.1 hPa | 0 mm | - | - | - |
| 1778190086 | 8.33° C | 41% | 1009 hPa | 0 mm | - | - | - |
* Rain latest hour (hover to see other rain measurements)
** Current wind speed in m/s (hover to see current wind gust speed)